createdAt,value
2018-08-10T00:01:44.006Z,24.49
2018-08-10T00:04:13.953Z,24.30
2018-08-10T00:06:43.722Z,24.13
2018-08-10T00:09:13.751Z,24.18
2018-08-10T00:11:43.695Z,24.23
2018-08-10T00:14:13.516Z,24.36
2018-08-10T00:16:43.313Z,24.20
2018-08-10T00:19:13.307Z,24.11
2018-08-10T00:21:43.247Z,24.09
2018-08-10T00:24:13.310Z,24.23
2018-08-10T00:26:43.138Z,24.20
2018-08-10T00:29:13.071Z,24.27
2018-08-10T00:31:42.989Z,24.17
2018-08-10T00:34:12.775Z,24.34
2018-08-10T00:36:42.528Z,24.39
2018-08-10T00:39:13.953Z,24.30
2018-08-10T00:41:44.763Z,24.26
2018-08-10T00:44:14.721Z,24.22
2018-08-10T00:46:44.714Z,24.27
2018-08-10T00:49:14.667Z,24.16
2018-08-10T00:51:44.610Z,24.20
2018-08-10T00:54:14.404Z,24.24
2018-08-10T00:56:44.224Z,24.14
2018-08-10T00:59:14.214Z,24.05
2018-08-10T01:01:44.432Z,23.82
2018-08-10T01:04:14.572Z,23.74
2018-08-10T01:06:44.408Z,23.82
2018-08-10T01:09:14.310Z,23.79
2018-08-10T01:11:44.323Z,23.55
2018-08-10T01:14:14.140Z,23.59
2018-08-10T01:16:43.925Z,23.66
2018-08-10T01:19:14.063Z,23.65
2018-08-10T01:21:43.988Z,23.57
2018-08-10T01:24:13.861Z,23.47
2018-08-10T01:26:43.841Z,23.44
2018-08-10T01:29:13.688Z,23.51
2018-08-10T01:31:43.571Z,23.51
2018-08-10T01:34:13.378Z,23.51
2018-08-10T01:36:43.160Z,23.40
2018-08-10T01:39:13.287Z,23.31
2018-08-10T01:41:43.141Z,23.28
2018-08-10T01:44:13.125Z,23.22
2018-08-10T01:46:42.992Z,23.12
2018-08-10T01:49:12.856Z,23.17
2018-08-10T01:51:42.878Z,23.03
2018-08-10T01:54:12.650Z,22.91
2018-08-10T01:56:42.409Z,22.94
2018-08-10T01:59:12.290Z,22.83
2018-08-10T02:01:42.149Z,22.30
2018-08-10T02:04:12.041Z,22.03
2018-08-10T02:06:41.763Z,21.93
2018-08-10T02:09:12.252Z,21.79
2018-08-10T02:11:42.081Z,21.97
2018-08-10T02:14:11.905Z,22.11
2018-08-10T02:16:41.709Z,22.01
2018-08-10T02:19:11.663Z,21.96
2018-08-10T02:21:41.603Z,21.85
2018-08-10T02:24:11.501Z,21.82
2018-08-10T02:26:41.489Z,21.82
2018-08-10T02:29:11.542Z,21.86
2018-08-10T02:31:41.550Z,21.86
2018-08-10T02:34:11.334Z,21.83
2018-08-10T02:36:41.102Z,21.87
2018-08-10T02:39:12.695Z,21.87
2018-08-10T02:41:42.684Z,21.89
2018-08-10T02:44:12.571Z,21.83
2018-08-10T02:46:42.564Z,21.73
2018-08-10T02:49:12.519Z,21.74
2018-08-10T02:51:42.479Z,21.84
2018-08-10T02:54:12.274Z,21.90
2018-08-10T02:56:42.051Z,22.01
2018-08-10T02:59:11.999Z,22.07
2018-08-10T03:01:41.947Z,22.16
2018-08-10T03:04:11.818Z,22.14
2018-08-10T03:06:41.618Z,22.01
2018-08-10T03:09:12.380Z,22.09
2018-08-10T03:11:42.277Z,22.08
2018-08-10T03:14:12.049Z,21.99
2018-08-10T03:16:41.778Z,21.89
2018-08-10T03:19:11.726Z,21.82
2018-08-10T03:21:41.615Z,21.87
2018-08-10T03:24:11.533Z,21.78
2018-08-10T03:26:41.474Z,21.97
2018-08-10T03:29:11.375Z,22.15
2018-08-10T03:31:41.369Z,22.16
2018-08-10T03:34:11.162Z,22.16
2018-08-10T03:36:41.016Z,22.10
2018-08-10T03:39:12.688Z,21.94
2018-08-10T03:41:43.089Z,21.82
2018-08-10T03:44:13.017Z,21.66
2018-08-10T03:46:42.865Z,21.38
2018-08-10T03:49:12.800Z,21.33
2018-08-10T03:51:42.883Z,21.49
2018-08-10T03:54:12.677Z,21.63
2018-08-10T03:56:42.472Z,21.87
2018-08-10T03:59:12.445Z,21.91
2018-08-10T04:01:42.244Z,22.09
2018-08-10T04:04:12.366Z,22.09
2018-08-10T04:06:42.161Z,21.95
2018-08-10T04:09:13.115Z,21.84
2018-08-10T04:11:43.517Z,21.78
2018-08-10T04:14:13.309Z,21.67
2018-08-10T04:16:43.063Z,21.68
2018-08-10T04:19:12.950Z,21.87
2018-08-10T04:21:42.772Z,21.80
2018-08-10T04:24:12.673Z,21.67
2018-08-10T04:26:42.510Z,21.84
2018-08-10T04:29:12.474Z,21.90
2018-08-10T04:31:42.368Z,21.96
2018-08-10T04:34:12.227Z,21.98
2018-08-10T04:36:41.974Z,22.01
2018-08-10T04:39:13.648Z,22.10
2018-08-10T04:41:43.918Z,22.18
2018-08-10T04:44:13.848Z,22.35
2018-08-10T04:46:43.762Z,22.38
2018-08-10T04:49:13.615Z,22.51
2018-08-10T04:51:43.506Z,22.66
2018-08-10T04:54:13.365Z,22.70
2018-08-10T04:56:43.135Z,22.90
2018-08-10T04:59:13.013Z,22.87
2018-08-10T05:01:42.939Z,23.10
2018-08-10T05:04:12.902Z,23.27
2018-08-10T05:06:42.701Z,23.44
2018-08-10T05:09:13.873Z,23.71
2018-08-10T05:11:44.915Z,23.80
2018-08-10T05:14:14.646Z,23.95
2018-08-10T05:16:44.501Z,24.03
2018-08-10T05:19:14.530Z,24.19
2018-08-10T05:21:44.476Z,24.36
2018-08-10T05:24:14.348Z,24.44
2018-08-10T05:26:44.181Z,24.58
2018-08-10T05:29:14.141Z,24.75
2018-08-10T05:31:44.123Z,24.80
2018-08-10T05:34:14.044Z,24.93
2018-08-10T05:36:43.790Z,24.98
2018-08-10T05:39:13.735Z,25.02
2018-08-10T05:41:43.676Z,25.14
2018-08-10T05:44:13.712Z,25.37
2018-08-10T05:46:43.677Z,25.60
2018-08-10T05:49:13.660Z,25.50
2018-08-10T05:51:43.453Z,25.42
2018-08-10T05:54:13.293Z,25.41
2018-08-10T05:56:43.183Z,25.66
2018-08-10T05:59:13.081Z,25.81
2018-08-10T06:01:42.945Z,25.72
2018-08-10T06:04:12.877Z,26.12
2018-08-10T06:06:42.658Z,26.16
2018-08-10T06:09:14.557Z,26.25
2018-08-10T06:11:45.306Z,26.36
2018-08-10T06:14:15.837Z,26.33
2018-08-10T06:16:45.718Z,26.51
2018-08-10T06:19:15.641Z,26.71
2018-08-10T06:21:45.574Z,26.83
2018-08-10T06:24:15.479Z,27.06
2018-08-10T06:26:45.458Z,27.07
2018-08-10T06:29:15.409Z,27.10
2018-08-10T06:31:45.370Z,27.17
2018-08-10T06:34:15.229Z,27.42
2018-08-10T06:36:45.107Z,27.46
2018-08-10T06:39:14.942Z,27.81
2018-08-10T06:41:44.797Z,27.96
2018-08-10T06:44:14.657Z,27.96
2018-08-10T06:46:44.537Z,27.95
2018-08-10T06:49:14.384Z,28.34
2018-08-10T06:51:44.320Z,28.83
2018-08-10T06:54:14.098Z,28.67
2018-08-10T06:56:43.986Z,28.93
2018-08-10T06:59:13.975Z,29.40
2018-08-10T07:01:43.882Z,29.24
2018-08-10T07:04:13.803Z,29.38
2018-08-10T07:06:43.553Z,29.46
2018-08-10T07:09:14.037Z,29.62
2018-08-10T07:11:43.928Z,29.09
2018-08-10T07:14:13.774Z,29.18
2018-08-10T07:16:43.641Z,29.35
2018-08-10T07:19:13.518Z,29.30
2018-08-10T07:21:43.380Z,29.21
2018-08-10T07:24:13.320Z,28.92
2018-08-10T07:26:43.033Z,29.09
2018-08-10T07:29:12.914Z,29.44
2018-08-10T07:31:44.693Z,29.45
2018-08-10T07:34:14.522Z,29.30
2018-08-10T07:36:44.275Z,29.37
2018-08-10T07:39:14.239Z,29.41
2018-08-10T07:41:44.218Z,30.08
2018-08-10T07:44:14.202Z,30.54
2018-08-10T07:46:44.136Z,30.60
2018-08-10T07:49:14.066Z,30.34
2018-08-10T07:51:44.039Z,29.94
2018-08-10T07:54:13.813Z,30.04
2018-08-10T07:56:43.647Z,30.28
2018-08-10T07:59:13.733Z,30.00
2018-08-10T08:01:43.723Z,30.08
2018-08-10T08:04:13.671Z,29.75
2018-08-10T08:06:43.407Z,29.66
2018-08-10T08:09:13.923Z,29.62
2018-08-10T08:11:43.966Z,29.65
2018-08-10T08:14:13.775Z,29.90
2018-08-10T08:16:43.599Z,30.60
2018-08-10T08:19:13.538Z,31.03
2018-08-10T08:22:16.893Z,31.16
2018-08-10T08:24:46.895Z,31.50
2018-08-10T08:27:18.006Z,31.31
2018-08-10T08:29:47.983Z,31.36
2018-08-10T08:32:18.037Z,31.16
2018-08-10T08:34:47.904Z,30.54
2018-08-10T08:37:17.708Z,30.78
2018-08-10T08:40:53.782Z,31.00
2018-08-10T08:43:34.496Z,31.60
2018-08-10T08:46:07.807Z,31.66
2018-08-10T08:48:41.139Z,31.55
2018-08-10T08:51:14.386Z,31.88
2018-08-10T08:53:44.217Z,32.01
2018-08-10T08:56:19.101Z,32.09
2018-08-10T08:58:50.223Z,32.11
2018-08-10T09:01:20.402Z,32.02
2018-08-10T09:05:00.218Z,32.24
2018-08-10T09:07:30.550Z,32.82
2018-08-10T09:10:01.087Z,32.81
2018-08-10T09:12:31.460Z,32.70
2018-08-10T09:15:07.105Z,32.40
2018-08-10T09:17:37.171Z,32.09
2018-08-10T09:20:08.213Z,32.60
2018-08-10T09:22:38.229Z,32.65
2018-08-10T09:25:09.921Z,32.69
2018-08-10T09:27:39.901Z,32.31
2018-08-10T09:30:11.552Z,32.71
2018-08-10T09:32:42.050Z,32.87
2018-08-10T09:35:12.679Z,32.50
2018-08-10T09:37:42.839Z,32.85
2018-08-10T09:40:15.054Z,32.72
2018-08-10T09:42:45.967Z,33.04
2018-08-10T09:45:16.598Z,33.59
2018-08-10T09:47:47.787Z,33.61
2018-08-10T09:50:18.643Z,34.03
2018-08-10T09:52:55.153Z,34.12
2018-08-10T09:55:32.898Z,33.84
2018-08-10T09:58:04.296Z,34.10
2018-08-10T10:00:39.260Z,34.12
2018-08-10T10:03:15.419Z,34.29
2018-08-10T10:05:45.850Z,34.57
2018-08-10T10:08:16.252Z,34.58
2018-08-10T10:10:46.193Z,34.60
2018-08-10T10:13:16.155Z,34.42
2018-08-10T10:15:46.042Z,34.21
2018-08-10T10:18:16.919Z,33.88
2018-08-10T10:20:47.549Z,33.60
2018-08-10T10:23:17.666Z,34.62
2018-08-10T10:25:47.593Z,34.28
2018-08-10T10:28:17.640Z,34.26
2018-08-10T10:30:47.537Z,34.49
2018-08-10T10:33:17.393Z,34.72
2018-08-10T10:35:47.117Z,33.98
2018-08-10T10:38:17.026Z,33.36
2018-08-10T10:40:46.866Z,33.50
2018-08-10T10:43:16.736Z,33.97
2018-08-10T10:45:46.722Z,34.61
2018-08-10T10:48:16.558Z,35.20
2018-08-10T10:50:46.439Z,35.06
2018-08-10T10:53:16.250Z,34.70
2018-08-10T10:55:46.045Z,34.75
2018-08-10T10:58:15.848Z,34.84
2018-08-10T11:00:45.657Z,35.26
2018-08-10T11:03:15.538Z,35.53
2018-08-10T11:05:45.410Z,35.26
2018-08-10T11:08:15.203Z,34.57
2018-08-10T11:10:45.073Z,35.14
2018-08-10T11:13:14.888Z,34.71
2018-08-10T11:15:44.738Z,34.65
2018-08-10T11:18:14.564Z,35.14
2018-08-10T11:20:44.494Z,35.63
2018-08-10T11:23:14.318Z,35.30
2018-08-10T11:25:44.288Z,34.85
2018-08-10T11:28:14.141Z,34.79
2018-08-10T11:30:43.994Z,35.02
2018-08-10T11:33:13.839Z,35.13
2018-08-10T11:35:43.801Z,35.38
2018-08-10T11:38:13.634Z,35.92
2018-08-10T11:40:43.576Z,35.81
2018-08-10T11:43:13.412Z,36.59
2018-08-10T11:45:43.309Z,36.53
2018-08-10T11:48:13.218Z,36.20
2018-08-10T11:50:43.072Z,35.53
2018-08-10T11:53:12.977Z,35.38
2018-08-10T11:55:42.797Z,35.77
2018-08-10T11:58:12.891Z,36.69
2018-08-10T12:00:42.840Z,37.00
2018-08-10T12:03:12.686Z,37.55
2018-08-10T12:05:42.591Z,37.69
2018-08-10T12:08:12.516Z,37.80
2018-08-10T12:10:42.411Z,37.16
2018-08-10T12:13:12.297Z,37.30
2018-08-10T12:15:42.191Z,37.26
2018-08-10T12:18:12.082Z,36.87
2018-08-10T12:20:42.030Z,36.77
2018-08-10T12:23:11.878Z,36.72
2018-08-10T12:25:41.796Z,37.03
2018-08-10T12:28:11.657Z,36.42
2018-08-10T12:30:41.537Z,36.99
2018-08-10T12:33:11.345Z,37.32
2018-08-10T12:35:41.213Z,37.57
2018-08-10T12:38:11.020Z,37.04
2018-08-10T12:40:40.907Z,36.71
2018-08-10T12:43:10.844Z,37.13
2018-08-10T12:45:40.624Z,36.82
2018-08-10T12:48:10.481Z,36.38
2018-08-10T12:50:40.502Z,37.16
2018-08-10T12:53:10.650Z,36.39
2018-08-10T12:55:40.469Z,36.34
2018-08-10T12:58:10.380Z,36.58
2018-08-10T13:00:40.237Z,36.13
2018-08-10T13:03:10.157Z,36.49
2018-08-10T13:05:40.025Z,37.12
2018-08-10T13:08:09.861Z,37.26
2018-08-10T13:10:39.895Z,37.37
2018-08-10T13:13:09.590Z,37.39
2018-08-10T13:15:39.380Z,37.72
2018-08-10T13:18:09.238Z,37.06
2018-08-10T13:20:39.058Z,36.50
2018-08-10T13:23:08.930Z,37.00
2018-08-10T13:25:38.816Z,37.90
2018-08-10T13:28:08.796Z,37.73
2018-08-10T13:30:38.645Z,38.10
2018-08-10T13:33:08.543Z,38.69
2018-08-10T13:35:38.402Z,37.93
2018-08-10T13:38:08.546Z,37.57
2018-08-10T13:40:38.620Z,37.60
2018-08-10T13:43:08.654Z,37.44
2018-08-10T13:45:38.555Z,37.06
2018-08-10T13:48:08.474Z,37.31
2018-08-10T13:50:38.201Z,37.98
2018-08-10T13:53:08.140Z,38.78
2018-08-10T13:55:37.915Z,39.34
2018-08-10T13:58:08.096Z,39.53
2018-08-10T14:00:38.193Z,39.24
2018-08-10T14:03:08.209Z,39.11
2018-08-10T14:05:38.142Z,38.52
2018-08-10T14:08:10.107Z,38.43
2018-08-10T14:10:40.033Z,38.58
2018-08-10T14:13:09.866Z,38.61
2018-08-10T14:15:39.717Z,38.41
2018-08-10T14:18:09.639Z,37.70
2018-08-10T14:20:39.494Z,37.45
2018-08-10T14:23:09.257Z,37.57
2018-08-10T14:25:39.197Z,37.41
2018-08-10T14:28:09.065Z,38.10
2018-08-10T14:30:38.861Z,38.66
2018-08-10T14:33:08.726Z,38.67
2018-08-10T14:35:38.499Z,38.92
2018-08-10T14:38:08.315Z,38.78
2018-08-10T14:40:38.185Z,38.88
2018-08-10T14:43:08.090Z,38.08
2018-08-10T14:45:38.039Z,38.01
2018-08-10T14:48:07.856Z,37.82
2018-08-10T14:50:37.744Z,38.27
2018-08-10T14:53:07.709Z,37.96
2018-08-10T14:55:37.580Z,37.90
2018-08-10T14:58:07.590Z,37.75
2018-08-10T15:00:37.621Z,38.04
2018-08-10T15:03:07.732Z,38.80
2018-08-10T15:05:37.620Z,38.50
2018-08-10T15:08:07.421Z,38.60
2018-08-10T15:10:37.353Z,38.90
2018-08-10T15:13:07.349Z,38.46
2018-08-10T15:15:37.111Z,37.92
2018-08-10T15:18:07.180Z,37.93
2018-08-10T15:20:37.055Z,37.53
2018-08-10T15:23:06.814Z,37.67
2018-08-10T15:25:36.668Z,37.74
2018-08-10T15:28:06.733Z,37.68
2018-08-10T15:30:36.730Z,37.18
2018-08-10T15:33:06.817Z,36.87
2018-08-10T15:35:36.716Z,36.68
2018-08-10T15:38:07.008Z,36.61
2018-08-10T15:40:36.825Z,36.16
2018-08-10T15:43:06.699Z,35.80
2018-08-10T15:45:36.716Z,35.80
2018-08-10T15:48:06.719Z,36.01
2018-08-10T15:50:36.608Z,35.73
2018-08-10T15:53:06.338Z,35.56
2018-08-10T15:55:36.199Z,35.67
2018-08-10T15:58:06.093Z,35.57
2018-08-10T16:00:35.921Z,35.85
2018-08-10T16:03:05.864Z,35.30
2018-08-10T16:05:35.775Z,35.19
2018-08-10T16:08:05.868Z,35.61
2018-08-10T16:10:35.722Z,35.81
2018-08-10T16:13:05.510Z,35.50
2018-08-10T16:15:35.270Z,35.37
2018-08-10T16:18:05.250Z,35.31
2018-08-10T16:20:35.205Z,34.99
2018-08-10T16:23:05.197Z,34.85
2018-08-10T16:25:35.016Z,34.46
2018-08-10T16:28:05.146Z,33.85
2018-08-10T16:30:34.992Z,33.90
2018-08-10T16:33:04.856Z,34.03
2018-08-10T16:35:34.687Z,34.16
2018-08-10T16:38:04.514Z,34.28
2018-08-10T16:40:34.449Z,34.36
2018-08-10T16:43:04.437Z,34.08
2018-08-10T16:45:34.347Z,33.98
2018-08-10T16:48:04.210Z,33.76
2018-08-10T16:50:34.310Z,33.42
2018-08-10T16:53:04.304Z,33.07
2018-08-10T16:55:34.117Z,32.90
2018-08-10T16:58:04.016Z,32.59
2018-08-10T17:00:33.987Z,32.18
2018-08-10T17:03:03.860Z,31.98
2018-08-10T17:05:33.796Z,31.66
2018-08-10T17:08:03.653Z,31.53
2018-08-10T17:10:33.608Z,31.19
2018-08-10T17:13:03.396Z,31.19
2018-08-10T17:15:33.160Z,30.96
2018-08-10T17:18:03.184Z,30.83
2018-08-10T17:20:33.093Z,30.42
2018-08-10T17:23:03.035Z,30.09
2018-08-10T17:25:32.930Z,30.05
2018-08-10T17:28:02.845Z,30.03
2018-08-10T17:30:32.742Z,29.78
2018-08-10T17:33:02.576Z,29.44
2018-08-10T17:35:32.415Z,29.43
2018-08-10T17:38:02.198Z,29.31
2018-08-10T17:40:32.068Z,29.06
2018-08-10T17:43:02.049Z,29.05
2018-08-10T17:45:31.983Z,28.88
2018-08-10T17:48:01.902Z,28.69
2018-08-10T17:50:31.858Z,28.47
2018-08-10T17:53:01.686Z,28.52
2018-08-10T17:55:31.577Z,28.60
2018-08-10T17:58:01.365Z,28.60
2018-08-10T18:00:31.350Z,28.60
2018-08-10T18:03:01.258Z,28.53
2018-08-10T18:05:31.149Z,28.46
2018-08-10T18:08:00.965Z,28.35
2018-08-10T18:10:30.943Z,28.32
2018-08-10T18:13:00.733Z,28.30
2018-08-10T18:15:30.532Z,28.14
2018-08-10T18:18:00.426Z,28.12
2018-08-10T18:20:30.251Z,27.91
2018-08-10T18:23:01.137Z,27.80
2018-08-10T18:25:30.974Z,27.67
2018-08-10T18:28:00.913Z,27.72
2018-08-10T18:30:30.814Z,27.60
2018-08-10T18:33:00.696Z,27.51
2018-08-10T18:35:30.497Z,27.34
2018-08-10T18:38:00.398Z,27.19
2018-08-10T18:40:30.218Z,27.16
2018-08-10T18:43:00.095Z,27.04
2018-08-10T18:45:29.939Z,26.94
2018-08-10T18:47:59.744Z,26.75
2018-08-10T18:50:29.683Z,26.50
2018-08-10T18:52:59.470Z,26.33
2018-08-10T18:55:29.283Z,26.26
2018-08-10T18:57:59.140Z,26.46
2018-08-10T19:00:29.006Z,26.17
2018-08-10T19:02:58.943Z,26.01
2018-08-10T19:05:29.311Z,25.98
2018-08-10T19:07:59.263Z,25.85
2018-08-10T19:10:29.924Z,25.70
2018-08-10T19:12:59.818Z,25.54
2018-08-10T19:15:30.163Z,25.42
2018-08-10T19:17:59.986Z,25.23
2018-08-10T19:20:29.772Z,25.23
2018-08-10T19:22:59.521Z,25.10
2018-08-10T19:25:29.414Z,25.07
2018-08-10T19:27:59.254Z,25.04
2018-08-10T19:30:29.095Z,25.01
2018-08-10T19:32:58.913Z,24.87
2018-08-10T19:35:28.747Z,24.90
2018-08-10T19:37:58.544Z,24.70
2018-08-10T19:40:28.377Z,24.69
2018-08-10T19:42:58.277Z,24.61
2018-08-10T19:45:28.144Z,24.62
2018-08-10T19:47:58.031Z,24.54
2018-08-10T19:50:27.912Z,24.45
2018-08-10T19:52:57.641Z,24.47
2018-08-10T19:55:27.442Z,24.47
2018-08-10T19:57:57.331Z,24.27
2018-08-10T20:00:27.152Z,24.17
2018-08-10T20:02:57.058Z,24.14
2018-08-10T20:05:27.035Z,24.08
2018-08-10T20:07:58.203Z,23.86
2018-08-10T20:10:28.695Z,23.91
2018-08-10T20:12:59.865Z,23.62
2018-08-10T20:15:31.097Z,23.59
2018-08-10T20:18:01.797Z,23.51
2018-08-10T20:20:32.799Z,23.53
2018-08-10T20:23:03.800Z,23.57
2018-08-10T20:25:34.879Z,23.64
2018-08-10T20:28:05.281Z,23.48
2018-08-10T20:30:36.465Z,23.42
2018-08-10T20:33:07.679Z,23.28
2018-08-10T20:35:38.627Z,23.28
2018-08-10T20:38:09.731Z,23.38
2018-08-10T20:40:40.869Z,23.24
2018-08-10T20:43:12.272Z,23.25
2018-08-10T20:45:43.230Z,23.11
2018-08-10T20:48:14.474Z,23.13
2018-08-10T20:50:44.359Z,23.07
2018-08-10T20:53:15.585Z,23.09
2018-08-10T20:55:45.642Z,23.03
2018-08-10T20:58:16.433Z,22.94
2018-08-10T21:00:47.293Z,22.95
2018-08-10T21:03:17.948Z,22.94
2018-08-10T21:05:48.723Z,22.96
2018-08-10T21:08:19.887Z,22.82
2018-08-10T21:10:50.603Z,22.72
2018-08-10T21:13:21.432Z,22.69
2018-08-10T21:15:52.369Z,22.66
2018-08-10T21:18:23.070Z,22.75
2018-08-10T21:20:53.856Z,22.69
2018-08-10T21:23:24.585Z,22.65
2018-08-10T21:25:54.815Z,22.72
2018-08-10T21:28:25.604Z,22.55
2018-08-10T21:30:55.712Z,22.59
2018-08-10T21:33:26.706Z,22.55
2018-08-10T21:35:57.349Z,22.63
2018-08-10T21:38:28.253Z,22.62
2018-08-10T21:40:59.915Z,22.62
2018-08-10T21:43:30.318Z,22.41
2018-08-10T21:46:01.051Z,22.31
2018-08-10T21:48:31.812Z,22.26
2018-08-10T21:51:02.823Z,22.20
2018-08-10T21:53:33.625Z,22.22
2018-08-10T21:56:04.046Z,22.16
2018-08-10T21:58:35.026Z,22.19
2018-08-10T22:01:05.878Z,22.14
2018-08-10T22:03:36.605Z,21.85
2018-08-10T22:06:07.417Z,21.87
2018-08-10T22:08:38.699Z,21.86
2018-08-10T22:11:09.403Z,21.82
2018-08-10T22:13:45.304Z,21.70
2018-08-10T22:16:21.179Z,21.55
2018-08-10T22:18:57.218Z,21.41
2018-08-10T22:21:28.002Z,21.39
2018-08-10T22:23:58.703Z,21.44
2018-08-10T22:26:29.856Z,21.32
2018-08-10T22:29:01.553Z,21.39
2018-08-10T22:31:33.191Z,21.56
2018-08-10T22:34:03.973Z,21.60
2018-08-10T22:36:34.518Z,21.46
2018-08-10T22:39:07.137Z,21.44
2018-08-10T22:41:37.633Z,21.47
2018-08-10T22:44:08.794Z,21.37
2018-08-10T22:46:39.086Z,21.18
2018-08-10T22:49:09.894Z,21.08
2018-08-10T22:51:40.531Z,21.08
2018-08-10T22:54:11.593Z,21.19
2018-08-10T22:56:42.233Z,21.12
2018-08-10T22:59:12.823Z,20.90
2018-08-10T23:01:43.544Z,20.98
2018-08-10T23:04:14.895Z,21.02
2018-08-10T23:06:45.760Z,21.07
2018-08-10T23:09:16.233Z,21.11
2018-08-10T23:11:46.185Z,21.13
2018-08-10T23:14:17.203Z,21.03
2018-08-10T23:16:47.767Z,20.84
2018-08-10T23:19:18.472Z,20.74
2018-08-10T23:21:49.404Z,20.70
2018-08-10T23:24:20.300Z,20.72
2018-08-10T23:26:51.250Z,20.79
2018-08-10T23:29:22.833Z,20.60
2018-08-10T23:31:53.647Z,20.77
2018-08-10T23:34:24.426Z,20.80
2018-08-10T23:36:55.047Z,20.79
2018-08-10T23:39:25.620Z,20.75
2018-08-10T23:41:56.230Z,20.81
2018-08-10T23:44:26.976Z,20.77
2018-08-10T23:46:57.559Z,20.84
2018-08-10T23:49:28.295Z,20.84
2018-08-10T23:51:58.927Z,20.69
2018-08-10T23:54:29.533Z,20.52
2018-08-10T23:57:00.491Z,20.13
2018-08-10T23:59:31.273Z,20.23
